首页
METAR-TAF:

METAR-TAF

机场 :

Fond Du Lac County Airport

Fond du Lac, 威斯康辛州, 美国

纬度: 43-46-12N, 经度: 088-29-11W, 海拔: 246米

当前天气观测

该预报发布于8分钟前的20:53 UTC
风速13节,风向西转西北
温度 23°C
湿度 47%
气压 1015 hPa
能見度: 16.1公里
少量云层高于6500英尺

METAR: KFLD 232053Z AUTO 30013KT 10SM FEW065 23/11 A2996 RMK AO2 SLP144 T02280106 56005

时间: 16:01 (21:01 UTC)


TAF: 丢失

超过4000个机场的气象观测和天气预报(METAR&TAF报告)。

可查询的气象台以黄色和红色小点在地图上表示。

将鼠标移到小点上方,可查看气象台名称。

然后点击查看天气观测和预报。

如需切换地图:点击带黑十字的绿色按钮放大地图;点击带横线的绿色按钮缩小地图;或者点击绿色箭头查看邻近地区的地图。


METAR-TAF: